首页
METAR-TAF:

METAR-TAF

机场 :

安吉利斯港, 华盛顿, 美国

纬度: 48-07-20N, 经度: 123-30-19W, 海拔: 87米

当前天气观测

该预报发布于50分钟前的09:53 UTC
风速6节,风向
温度 7°C
湿度 93%
气压 1013 hPa
能見度: 16.1公里
天空无云

METAR: KCLM 150953Z AUTO 10006KT 10SM CLR 07/06 A2991 RMK AO2 SLP129 T00670061

时间: 02:43 (10:43 UTC)

预报

该预报发布于5小时和2分钟前的05:41 UTC
预报有效从15日的 06点(UTC)到 16日的 06点(UTC)
风速3节,风向多变
能見度: 10公里
阴天层高于10000英尺
从 15日的 1000点(UTC)
风速5节,风向西南
能見度: 6.4公里
多云层高于700英尺
阴天层高于1500英尺
小雨
从 15日的 1600点(UTC)
风速7节,风向西
能見度: 10公里
阴天层高于1500英尺
附近有阵雨
从 15日的 2200点(UTC)
风速6节,风向西
能見度: 10公里
散云层高于3000英尺

TAF: KCLM 150541Z 1506/1606 VRB03KT P6SM OVC100 FM151000 23005KT 4SM -RA BKN007 OVC015 FM151600 26007KT P6SM VCSH OVC015 FM152200 27006KT P6SM SCT030

超过4000个机场的气象观测和天气预报(METAR&TAF报告)。

可查询的气象台以黄色和红色小点在地图上表示。

将鼠标移到小点上方,可查看气象台名称。

然后点击查看天气观测和预报。

如需切换地图:点击带黑十字的绿色按钮放大地图;点击带横线的绿色按钮缩小地图;或者点击绿色箭头查看邻近地区的地图。


METAR-TAF: